sensor_id;sensor_type;location;lat;lon;timestamp;P1;durP1;ratioP1;P2;durP2;ratioP2
17382;SDS011;8809;51.892;8.384;2023-12-29T00:02:10;3.60;;;1.25;;
17382;SDS011;8809;51.892;8.384;2023-12-29T00:04:37;5.82;;;1.48;;
17382;SDS011;8809;51.892;8.384;2023-12-29T00:07:06;4.70;;;1.33;;
17382;SDS011;8809;51.892;8.384;2023-12-29T00:09:33;7.93;;;1.67;;
17382;SDS011;8809;51.892;8.384;2023-12-29T00:12:06;5.55;;;1.35;;
17382;SDS011;8809;51.892;8.384;2023-12-29T00:14:34;6.50;;;2.00;;
17382;SDS011;8809;51.892;8.384;2023-12-29T00:17:03;5.70;;;1.60;;
17382;SDS011;8809;51.892;8.384;2023-12-29T00:19:30;3.47;;;1.50;;
17382;SDS011;8809;51.892;8.384;2023-12-29T00:21:57;2.83;;;1.30;;
17382;SDS011;8809;51.892;8.384;2023-12-29T00:24:26;4.22;;;1.30;;
17382;SDS011;8809;51.892;8.384;2023-12-29T00:26:53;7.07;;;1.65;;
17382;SDS011;8809;51.892;8.384;2023-12-29T00:29:20;5.50;;;1.75;;
17382;SDS011;8809;51.892;8.384;2023-12-29T00:31:47;3.83;;;1.23;;
17382;SDS011;8809;51.892;8.384;2023-12-29T00:34:14;5.13;;;1.40;;
17382;SDS011;8809;51.892;8.384;2023-12-29T00:36:41;7.35;;;1.77;;
17382;SDS011;8809;51.892;8.384;2023-12-29T00:39:08;3.85;;;1.25;;
17382;SDS011;8809;51.892;8.384;2023-12-29T00:41:36;5.97;;;1.30;;
17382;SDS011;8809;51.892;8.384;2023-12-29T00:44:03;5.85;;;1.90;;
17382;SDS011;8809;51.892;8.384;2023-12-29T00:46:30;5.07;;;1.63;;
17382;SDS011;8809;51.892;8.384;2023-12-29T00:48:57;4.78;;;1.20;;
17382;SDS011;8809;51.892;8.384;2023-12-29T00:51:24;7.80;;;1.65;;
17382;SDS011;8809;51.892;8.384;2023-12-29T00:53:51;6.30;;;2.30;;
17382;SDS011;8809;51.892;8.384;2023-12-29T00:56:18;6.00;;;1.40;;
17382;SDS011;8809;51.892;8.384;2023-12-29T00:58:47;3.55;;;1.38;;
17382;SDS011;8809;51.892;8.384;2023-12-29T01:01:14;6.13;;;1.73;;
17382;SDS011;8809;51.892;8.384;2023-12-29T01:03:41;6.05;;;1.25;;
17382;SDS011;8809;51.892;8.384;2023-12-29T01:06:08;4.10;;;1.42;;
17382;SDS011;8809;51.892;8.384;2023-12-29T01:08:35;5.72;;;1.63;;
17382;SDS011;8809;51.892;8.384;2023-12-29T01:11:02;3.75;;;1.23;;
17382;SDS011;8809;51.892;8.384;2023-12-29T01:13:29;4.20;;;1.48;;
17382;SDS011;8809;51.892;8.384;2023-12-29T01:15:57;6.40;;;1.40;;
17382;SDS011;8809;51.892;8.384;2023-12-29T01:18:24;8.55;;;1.85;;
17382;SDS011;8809;51.892;8.384;2023-12-29T01:20:51;6.05;;;1.35;;
17382;SDS011;8809;51.892;8.384;2023-12-29T01:23:19;4.47;;;1.40;;
17382;SDS011;8809;51.892;8.384;2023-12-29T01:25:47;11.90;;;1.90;;
17382;SDS011;8809;51.892;8.384;2023-12-29T01:28:14;3.83;;;1.00;;
17382;SDS011;8809;51.892;8.384;2023-12-29T01:30:41;3.80;;;1.20;;
17382;SDS011;8809;51.892;8.384;2023-12-29T01:33:10;3.25;;;1.10;;
17382;SDS011;8809;51.892;8.384;2023-12-29T01:35:38;4.45;;;1.50;;
17382;SDS011;8809;51.892;8.384;2023-12-29T01:38:05;3.00;;;1.20;;
17382;SDS011;8809;51.892;8.384;2023-12-29T01:40:32;5.72;;;1.60;;
17382;SDS011;8809;51.892;8.384;2023-12-29T01:42:59;4.72;;;1.33;;
17382;SDS011;8809;51.892;8.384;2023-12-29T01:45:27;4.40;;;1.40;;
17382;SDS011;8809;51.892;8.384;2023-12-29T01:47:54;4.80;;;1.35;;
17382;SDS011;8809;51.892;8.384;2023-12-29T01:50:22;5.90;;;1.50;;
17382;SDS011;8809;51.892;8.384;2023-12-29T01:52:49;4.22;;;1.20;;
17382;SDS011;8809;51.892;8.384;2023-12-29T01:55:18;2.90;;;1.42;;
17382;SDS011;8809;51.892;8.384;2023-12-29T01:57:47;6.15;;;1.50;;
17382;SDS011;8809;51.892;8.384;2023-12-29T02:00:16;4.85;;;1.25;;
17382;SDS011;8809;51.892;8.384;2023-12-29T02:02:44;4.38;;;1.52;;
17382;SDS011;8809;51.892;8.384;2023-12-29T02:05:13;5.10;;;1.60;;
17382;SDS011;8809;51.892;8.384;2023-12-29T02:07:43;3.17;;;1.30;;
17382;SDS011;8809;51.892;8.384;2023-12-29T02:10:09;4.82;;;1.50;;
17382;SDS011;8809;51.892;8.384;2023-12-29T02:12:39;5.50;;;1.10;;
17382;SDS011;8809;51.892;8.384;2023-12-29T02:15:06;5.47;;;1.33;;
17382;SDS011;8809;51.892;8.384;2023-12-29T02:17:35;5.22;;;1.20;;
17382;SDS011;8809;51.892;8.384;2023-12-29T02:20:07;5.53;;;1.30;;
17382;SDS011;8809;51.892;8.384;2023-12-29T02:22:37;4.40;;;1.33;;
17382;SDS011;8809;51.892;8.384;2023-12-29T02:25:05;6.00;;;1.15;;
17382;SDS011;8809;51.892;8.384;2023-12-29T02:27:34;2.80;;;1.20;;
17382;SDS011;8809;51.892;8.384;2023-12-29T02:30:09;4.63;;;1.23;;
17382;SDS011;8809;51.892;8.384;2023-12-29T02:32:43;6.85;;;1.45;;
17382;SDS011;8809;51.892;8.384;2023-12-29T02:35:14;3.63;;;1.40;;
17382;SDS011;8809;51.892;8.384;2023-12-29T02:37:44;4.28;;;1.45;;
17382;SDS011;8809;51.892;8.384;2023-12-29T02:40:14;4.72;;;1.52;;
17382;SDS011;8809;51.892;8.384;2023-12-29T02:42:44;5.63;;;1.48;;
17382;SDS011;8809;51.892;8.384;2023-12-29T02:45:12;2.92;;;1.38;;
17382;SDS011;8809;51.892;8.384;2023-12-29T02:47:41;7.25;;;1.45;;
17382;SDS011;8809;51.892;8.384;2023-12-29T02:50:08;4.97;;;1.60;;
17382;SDS011;8809;51.892;8.384;2023-12-29T02:52:37;3.28;;;1.40;;
17382;SDS011;8809;51.892;8.384;2023-12-29T02:55:04;4.68;;;1.48;;
17382;SDS011;8809;51.892;8.384;2023-12-29T02:57:32;6.15;;;1.88;;
17382;SDS011;8809;51.892;8.384;2023-12-29T02:59:59;5.75;;;1.50;;
17382;SDS011;8809;51.892;8.384;2023-12-29T03:02:26;5.00;;;1.60;;
17382;SDS011;8809;51.892;8.384;2023-12-29T03:04:53;4.85;;;1.40;;
17382;SDS011;8809;51.892;8.384;2023-12-29T03:07:20;4.22;;;1.40;;
17382;SDS011;8809;51.892;8.384;2023-12-29T03:09:47;5.65;;;1.70;;
17382;SDS011;8809;51.892;8.384;2023-12-29T03:12:14;6.30;;;1.55;;
17382;SDS011;8809;51.892;8.384;2023-12-29T03:14:42;5.40;;;1.45;;
17382;SDS011;8809;51.892;8.384;2023-12-29T03:17:12;6.03;;;1.75;;
17382;SDS011;8809;51.892;8.384;2023-12-29T03:19:39;5.97;;;2.08;;
17382;SDS011;8809;51.892;8.384;2023-12-29T03:22:07;4.85;;;1.60;;
17382;SDS011;8809;51.892;8.384;2023-12-29T03:24:34;4.70;;;1.45;;
17382;SDS011;8809;51.892;8.384;2023-12-29T03:27:01;3.10;;;1.35;;
17382;SDS011;8809;51.892;8.384;2023-12-29T03:29:27;4.25;;;1.90;;
17382;SDS011;8809;51.892;8.384;2023-12-29T03:31:56;4.93;;;1.30;;
17382;SDS011;8809;51.892;8.384;2023-12-29T03:34:24;5.03;;;1.83;;
17382;SDS011;8809;51.892;8.384;2023-12-29T03:36:51;5.22;;;1.52;;
17382;SDS011;8809;51.892;8.384;2023-12-29T03:39:18;5.22;;;1.60;;
17382;SDS011;8809;51.892;8.384;2023-12-29T03:41:45;5.30;;;1.60;;
17382;SDS011;8809;51.892;8.384;2023-12-29T03:44:12;4.15;;;1.75;;
17382;SDS011;8809;51.892;8.384;2023-12-29T03:46:39;4.75;;;2.10;;
17382;SDS011;8809;51.892;8.384;2023-12-29T03:49:08;6.10;;;1.63;;
17382;SDS011;8809;51.892;8.384;2023-12-29T03:51:36;7.80;;;1.95;;
17382;SDS011;8809;51.892;8.384;2023-12-29T03:54:06;6.68;;;1.88;;
17382;SDS011;8809;51.892;8.384;2023-12-29T03:56:37;8.20;;;2.13;;
17382;SDS011;8809;51.892;8.384;2023-12-29T03:59:04;5.20;;;1.85;;
17382;SDS011;8809;51.892;8.384;2023-12-29T04:01:32;7.15;;;1.98;;
17382;SDS011;8809;51.892;8.384;2023-12-29T04:04:02;4.85;;;1.80;;
17382;SDS011;8809;51.892;8.384;2023-12-29T04:06:31;5.13;;;1.80;;
17382;SDS011;8809;51.892;8.384;2023-12-29T04:08:57;5.97;;;2.10;;
17382;SDS011;8809;51.892;8.384;2023-12-29T04:11:24;6.90;;;2.10;;
17382;SDS011;8809;51.892;8.384;2023-12-29T04:13:51;7.72;;;1.90;;
17382;SDS011;8809;51.892;8.384;2023-12-29T04:16:18;6.10;;;1.98;;
17382;SDS011;8809;51.892;8.384;2023-12-29T04:18:45;4.47;;;1.90;;
17382;SDS011;8809;51.892;8.384;2023-12-29T04:21:13;6.68;;;1.80;;
17382;SDS011;8809;51.892;8.384;2023-12-29T04:23:41;4.20;;;1.90;;
17382;SDS011;8809;51.892;8.384;2023-12-29T04:26:08;11.52;;;2.47;;
17382;SDS011;8809;51.892;8.384;2023-12-29T04:28:35;4.15;;;1.95;;
17382;SDS011;8809;51.892;8.384;2023-12-29T04:31:02;6.75;;;2.00;;
17382;SDS011;8809;51.892;8.384;2023-12-29T04:33:29;5.10;;;2.08;;
17382;SDS011;8809;51.892;8.384;2023-12-29T04:35:56;5.57;;;2.10;;
17382;SDS011;8809;51.892;8.384;2023-12-29T04:38:23;5.05;;;1.65;;
17382;SDS011;8809;51.892;8.384;2023-12-29T04:40:51;4.85;;;1.90;;
17382;SDS011;8809;51.892;8.384;2023-12-29T04:43:18;5.90;;;1.90;;
17382;SDS011;8809;51.892;8.384;2023-12-29T04:45:45;5.57;;;1.90;;
17382;SDS011;8809;51.892;8.384;2023-12-29T04:48:12;4.22;;;1.80;;
17382;SDS011;8809;51.892;8.384;2023-12-29T04:50:39;4.63;;;2.10;;
17382;SDS011;8809;51.892;8.384;2023-12-29T04:53:06;4.85;;;2.10;;
17382;SDS011;8809;51.892;8.384;2023-12-29T04:55:33;4.53;;;2.00;;
17382;SDS011;8809;51.892;8.384;2023-12-29T04:58:01;7.68;;;2.45;;
17382;SDS011;8809;51.892;8.384;2023-12-29T05:00:28;5.35;;;2.13;;
17382;SDS011;8809;51.892;8.384;2023-12-29T05:02:55;6.35;;;1.80;;
17382;SDS011;8809;51.892;8.384;2023-12-29T05:05:21;5.45;;;2.00;;
17382;SDS011;8809;51.892;8.384;2023-12-29T05:07:48;4.90;;;2.03;;
17382;SDS011;8809;51.892;8.384;2023-12-29T05:10:15;7.35;;;1.80;;
17382;SDS011;8809;51.892;8.384;2023-12-29T05:12:42;3.20;;;1.67;;
17382;SDS011;8809;51.892;8.384;2023-12-29T05:15:10;9.20;;;2.22;;
17382;SDS011;8809;51.892;8.384;2023-12-29T05:17:37;5.28;;;1.98;;
17382;SDS011;8809;51.892;8.384;2023-12-29T05:20:06;5.63;;;2.08;;
17382;SDS011;8809;51.892;8.384;2023-12-29T05:22:33;6.13;;;2.90;;
17382;SDS011;8809;51.892;8.384;2023-12-29T05:25:00;5.22;;;1.70;;
17382;SDS011;8809;51.892;8.384;2023-12-29T05:27:28;7.88;;;2.55;;
17382;SDS011;8809;51.892;8.384;2023-12-29T05:29:55;6.65;;;1.70;;
17382;SDS011;8809;51.892;8.384;2023-12-29T05:32:24;6.65;;;1.77;;
17382;SDS011;8809;51.892;8.384;2023-12-29T05:34:51;5.25;;;1.80;;
17382;SDS011;8809;51.892;8.384;2023-12-29T05:37:18;5.10;;;1.63;;
17382;SDS011;8809;51.892;8.384;2023-12-29T05:39:45;6.07;;;1.73;;
17382;SDS011;8809;51.892;8.384;2023-12-29T05:42:12;5.25;;;2.00;;
17382;SDS011;8809;51.892;8.384;2023-12-29T05:44:39;6.50;;;1.98;;
17382;SDS011;8809;51.892;8.384;2023-12-29T05:47:06;6.57;;;1.52;;
17382;SDS011;8809;51.892;8.384;2023-12-29T05:49:34;6.95;;;1.95;;
17382;SDS011;8809;51.892;8.384;2023-12-29T05:52:04;8.00;;;1.88;;
17382;SDS011;8809;51.892;8.384;2023-12-29T05:54:31;7.00;;;2.35;;
17382;SDS011;8809;51.892;8.384;2023-12-29T05:56:58;10.35;;;2.33;;
17382;SDS011;8809;51.892;8.384;2023-12-29T05:59:26;5.90;;;2.05;;
17382;SDS011;8809;51.892;8.384;2023-12-29T06:01:53;7.13;;;1.95;;
17382;SDS011;8809;51.892;8.384;2023-12-29T06:04:20;6.97;;;1.70;;
17382;SDS011;8809;51.892;8.384;2023-12-29T06:06:48;10.07;;;2.60;;
17382;SDS011;8809;51.892;8.384;2023-12-29T06:09:15;8.82;;;1.70;;
17382;SDS011;8809;51.892;8.384;2023-12-29T06:11:42;7.93;;;1.83;;
17382;SDS011;8809;51.892;8.384;2023-12-29T06:14:09;8.00;;;2.10;;
17382;SDS011;8809;51.892;8.384;2023-12-29T06:16:36;5.75;;;1.70;;
17382;SDS011;8809;51.892;8.384;2023-12-29T06:19:03;5.03;;;1.50;;
17382;SDS011;8809;51.892;8.384;2023-12-29T06:21:33;5.45;;;1.75;;
17382;SDS011;8809;51.892;8.384;2023-12-29T06:24:02;6.35;;;1.70;;
17382;SDS011;8809;51.892;8.384;2023-12-29T06:26:29;6.32;;;1.70;;
17382;SDS011;8809;51.892;8.384;2023-12-29T06:28:56;5.07;;;1.75;;
17382;SDS011;8809;51.892;8.384;2023-12-29T06:31:23;5.30;;;1.60;;
17382;SDS011;8809;51.892;8.384;2023-12-29T06:33:50;10.48;;;1.80;;
17382;SDS011;8809;51.892;8.384;2023-12-29T06:36:17;5.07;;;2.05;;
17382;SDS011;8809;51.892;8.384;2023-12-29T06:38:44;5.78;;;1.80;;
17382;SDS011;8809;51.892;8.384;2023-12-29T06:41:15;7.00;;;2.15;;
17382;SDS011;8809;51.892;8.384;2023-12-29T06:43:44;6.32;;;1.95;;
17382;SDS011;8809;51.892;8.384;2023-12-29T06:46:11;5.05;;;1.90;;
17382;SDS011;8809;51.892;8.384;2023-12-29T06:48:39;9.07;;;2.28;;
17382;SDS011;8809;51.892;8.384;2023-12-29T06:51:06;7.90;;;2.03;;
17382;SDS011;8809;51.892;8.384;2023-12-29T06:53:35;6.75;;;1.90;;
17382;SDS011;8809;51.892;8.384;2023-12-29T06:56:02;7.07;;;1.80;;
17382;SDS011;8809;51.892;8.384;2023-12-29T06:58:31;6.97;;;2.20;;
17382;SDS011;8809;51.892;8.384;2023-12-29T07:00:58;9.18;;;2.10;;
17382;SDS011;8809;51.892;8.384;2023-12-29T07:03:26;12.43;;;2.17;;
17382;SDS011;8809;51.892;8.384;2023-12-29T07:05:53;8.48;;;2.22;;
17382;SDS011;8809;51.892;8.384;2023-12-29T07:08:19;7.28;;;1.73;;
17382;SDS011;8809;51.892;8.384;2023-12-29T07:10:46;9.90;;;2.70;;
17382;SDS011;8809;51.892;8.384;2023-12-29T07:13:15;5.75;;;1.70;;
17382;SDS011;8809;51.892;8.384;2023-12-29T07:15:44;6.50;;;1.70;;
17382;SDS011;8809;51.892;8.384;2023-12-29T07:18:11;6.88;;;1.80;;
17382;SDS011;8809;51.892;8.384;2023-12-29T07:20:38;4.40;;;1.70;;
17382;SDS011;8809;51.892;8.384;2023-12-29T07:23:05;7.30;;;1.83;;
17382;SDS011;8809;51.892;8.384;2023-12-29T07:25:32;9.05;;;1.65;;
17382;SDS011;8809;51.892;8.384;2023-12-29T07:27:58;11.13;;;2.10;;
17382;SDS011;8809;51.892;8.384;2023-12-29T07:30:26;4.40;;;1.73;;
17382;SDS011;8809;51.892;8.384;2023-12-29T07:32:54;7.30;;;2.00;;
17382;SDS011;8809;51.892;8.384;2023-12-29T07:35:21;9.15;;;1.80;;
17382;SDS011;8809;51.892;8.384;2023-12-29T07:37:48;9.68;;;1.85;;
17382;SDS011;8809;51.892;8.384;2023-12-29T07:40:15;7.32;;;1.65;;
17382;SDS011;8809;51.892;8.384;2023-12-29T07:42:43;6.68;;;1.75;;
17382;SDS011;8809;51.892;8.384;2023-12-29T07:45:11;5.63;;;2.00;;
17382;SDS011;8809;51.892;8.384;2023-12-29T07:47:38;6.05;;;1.77;;
17382;SDS011;8809;51.892;8.384;2023-12-29T07:50:07;6.45;;;1.60;;
17382;SDS011;8809;51.892;8.384;2023-12-29T07:52:34;7.07;;;1.63;;
17382;SDS011;8809;51.892;8.384;2023-12-29T07:55:04;8.30;;;1.80;;
17382;SDS011;8809;51.892;8.384;2023-12-29T07:57:31;6.97;;;1.70;;
17382;SDS011;8809;51.892;8.384;2023-12-29T07:59:58;5.10;;;1.52;;
17382;SDS011;8809;51.892;8.384;2023-12-29T08:02:25;9.68;;;1.65;;
17382;SDS011;8809;51.892;8.384;2023-12-29T08:04:52;6.80;;;1.73;;
17382;SDS011;8809;51.892;8.384;2023-12-29T08:07:21;6.55;;;1.60;;
17382;SDS011;8809;51.892;8.384;2023-12-29T08:09:48;6.57;;;2.05;;
17382;SDS011;8809;51.892;8.384;2023-12-29T08:12:16;6.88;;;2.08;;
17382;SDS011;8809;51.892;8.384;2023-12-29T08:14:44;9.00;;;1.80;;
17382;SDS011;8809;51.892;8.384;2023-12-29T08:17:11;6.45;;;1.80;;
17382;SDS011;8809;51.892;8.384;2023-12-29T08:19:39;6.75;;;1.67;;
17382;SDS011;8809;51.892;8.384;2023-12-29T08:22:06;7.80;;;2.00;;
17382;SDS011;8809;51.892;8.384;2023-12-29T08:24:35;11.65;;;2.50;;
17382;SDS011;8809;51.892;8.384;2023-12-29T08:27:02;5.82;;;1.88;;
17382;SDS011;8809;51.892;8.384;2023-12-29T08:29:29;7.38;;;2.03;;
17382;SDS011;8809;51.892;8.384;2023-12-29T08:31:56;6.38;;;1.52;;
17382;SDS011;8809;51.892;8.384;2023-12-29T08:34:23;8.10;;;1.77;;
17382;SDS011;8809;51.892;8.384;2023-12-29T08:36:51;6.43;;;1.55;;
17382;SDS011;8809;51.892;8.384;2023-12-29T08:39:18;6.65;;;1.63;;
17382;SDS011;8809;51.892;8.384;2023-12-29T08:41:47;6.20;;;1.88;;
17382;SDS011;8809;51.892;8.384;2023-12-29T08:44:15;3.45;;;1.60;;
17382;SDS011;8809;51.892;8.384;2023-12-29T08:46:42;5.63;;;1.60;;
17382;SDS011;8809;51.892;8.384;2023-12-29T08:49:09;4.85;;;1.80;;
17382;SDS011;8809;51.892;8.384;2023-12-29T08:51:39;5.82;;;1.52;;
17382;SDS011;8809;51.892;8.384;2023-12-29T08:54:06;7.38;;;1.90;;
17382;SDS011;8809;51.892;8.384;2023-12-29T08:56:33;7.45;;;1.60;;
17382;SDS011;8809;51.892;8.384;2023-12-29T08:59:01;6.97;;;1.70;;
17382;SDS011;8809;51.892;8.384;2023-12-29T09:01:28;6.85;;;1.65;;
17382;SDS011;8809;51.892;8.384;2023-12-29T09:03:55;7.90;;;1.70;;
17382;SDS011;8809;51.892;8.384;2023-12-29T09:06:22;4.30;;;1.80;;
17382;SDS011;8809;51.892;8.384;2023-12-29T09:08:49;5.25;;;1.65;;
17382;SDS011;8809;51.892;8.384;2023-12-29T09:11:16;3.78;;;1.95;;
17382;SDS011;8809;51.892;8.384;2023-12-29T09:13:43;4.82;;;1.40;;
17382;SDS011;8809;51.892;8.384;2023-12-29T09:16:13;4.50;;;1.60;;
17382;SDS011;8809;51.892;8.384;2023-12-29T09:18:40;6.20;;;1.92;;
17382;SDS011;8809;51.892;8.384;2023-12-29T09:21:07;5.13;;;1.65;;
17382;SDS011;8809;51.892;8.384;2023-12-29T09:23:35;9.43;;;1.98;;
17382;SDS011;8809;51.892;8.384;2023-12-29T09:26:04;6.05;;;1.73;;
17382;SDS011;8809;51.892;8.384;2023-12-29T09:28:31;4.93;;;1.77;;
17382;SDS011;8809;51.892;8.384;2023-12-29T09:30:59;6.30;;;1.98;;
17382;SDS011;8809;51.892;8.384;2023-12-29T09:33:28;4.60;;;1.70;;
17382;SDS011;8809;51.892;8.384;2023-12-29T09:35:55;5.10;;;1.60;;
17382;SDS011;8809;51.892;8.384;2023-12-29T09:38:22;5.97;;;1.85;;
17382;SDS011;8809;51.892;8.384;2023-12-29T09:40:49;7.60;;;2.08;;
17382;SDS011;8809;51.892;8.384;2023-12-29T09:43:19;6.22;;;1.83;;
17382;SDS011;8809;51.892;8.384;2023-12-29T09:45:46;6.55;;;1.60;;
17382;SDS011;8809;51.892;8.384;2023-12-29T09:48:17;3.63;;;1.40;;
17382;SDS011;8809;51.892;8.384;2023-12-29T09:50:47;5.63;;;1.40;;
17382;SDS011;8809;51.892;8.384;2023-12-29T09:53:17;8.07;;;1.77;;
17382;SDS011;8809;51.892;8.384;2023-12-29T09:55:48;3.72;;;1.10;;
17382;SDS011;8809;51.892;8.384;2023-12-29T09:58:16;4.28;;;1.15;;
17382;SDS011;8809;51.892;8.384;2023-12-29T10:00:46;1.98;;;1.30;;
17382;SDS011;8809;51.892;8.384;2023-12-29T10:03:15;4.88;;;1.73;;
17382;SDS011;8809;51.892;8.384;2023-12-29T10:05:42;2.03;;;1.17;;
17382;SDS011;8809;51.892;8.384;2023-12-29T10:08:12;3.72;;;1.27;;
17382;SDS011;8809;51.892;8.384;2023-12-29T10:10:40;3.55;;;1.00;;
17382;SDS011;8809;51.892;8.384;2023-12-29T10:13:09;2.75;;;1.00;;
17382;SDS011;8809;51.892;8.384;2023-12-29T10:15:40;1.55;;;1.02;;
17382;SDS011;8809;51.892;8.384;2023-12-29T10:18:14;1.88;;;1.00;;
17382;SDS011;8809;51.892;8.384;2023-12-29T10:20:49;1.77;;;1.40;;
17382;SDS011;8809;51.892;8.384;2023-12-29T10:23:25;3.20;;;1.38;;
17382;SDS011;8809;51.892;8.384;2023-12-29T10:25:58;1.95;;;1.20;;
17382;SDS011;8809;51.892;8.384;2023-12-29T10:28:25;4.22;;;1.30;;
17382;SDS011;8809;51.892;8.384;2023-12-29T10:30:52;2.95;;;1.10;;
17382;SDS011;8809;51.892;8.384;2023-12-29T10:33:20;3.17;;;1.10;;
17382;SDS011;8809;51.892;8.384;2023-12-29T10:35:58;4.18;;;1.17;;
17382;SDS011;8809;51.892;8.384;2023-12-29T10:38:30;1.55;;;1.05;;
17382;SDS011;8809;51.892;8.384;2023-12-29T10:41:10;3.60;;;1.42;;
17382;SDS011;8809;51.892;8.384;2023-12-29T10:43:39;1.60;;;1.33;;
17382;SDS011;8809;51.892;8.384;2023-12-29T10:46:09;2.97;;;0.90;;
17382;SDS011;8809;51.892;8.384;2023-12-29T10:48:39;3.05;;;1.00;;
17382;SDS011;8809;51.892;8.384;2023-12-29T10:51:06;3.85;;;1.00;;
17382;SDS011;8809;51.892;8.384;2023-12-29T10:53:39;3.35;;;1.05;;
17382;SDS011;8809;51.892;8.384;2023-12-29T10:56:16;2.45;;;1.08;;
17382;SDS011;8809;51.892;8.384;2023-12-29T10:58:45;1.35;;;0.82;;
17382;SDS011;8809;51.892;8.384;2023-12-29T11:01:13;2.25;;;1.00;;
17382;SDS011;8809;51.892;8.384;2023-12-29T11:03:48;1.13;;;0.93;;
17382;SDS011;8809;51.892;8.384;2023-12-29T11:06:24;1.75;;;0.70;;
17382;SDS011;8809;51.892;8.384;2023-12-29T11:08:53;2.53;;;1.20;;
17382;SDS011;8809;51.892;8.384;2023-12-29T11:11:21;1.48;;;0.70;;
17382;SDS011;8809;51.892;8.384;2023-12-29T11:13:48;2.67;;;0.80;;
17382;SDS011;8809;51.892;8.384;2023-12-29T11:16:16;1.67;;;0.77;;
17382;SDS011;8809;51.892;8.384;2023-12-29T11:18:46;1.83;;;0.75;;
17382;SDS011;8809;51.892;8.384;2023-12-29T11:21:16;1.13;;;0.75;;
17382;SDS011;8809;51.892;8.384;2023-12-29T11:23:44;2.15;;;0.75;;
17382;SDS011;8809;51.892;8.384;2023-12-29T11:26:15;0.70;;;0.68;;
17382;SDS011;8809;51.892;8.384;2023-12-29T11:28:43;0.90;;;0.60;;
17382;SDS011;8809;51.892;8.384;2023-12-29T11:31:12;2.15;;;0.60;;
17382;SDS011;8809;51.892;8.384;2023-12-29T11:33:40;0.60;;;0.60;;
17382;SDS011;8809;51.892;8.384;2023-12-29T11:36:12;1.67;;;0.60;;
17382;SDS011;8809;51.892;8.384;2023-12-29T11:38:47;2.05;;;0.70;;
17382;SDS011;8809;51.892;8.384;2023-12-29T11:41:20;2.13;;;0.80;;
17382;SDS011;8809;51.892;8.384;2023-12-29T11:43:58;1.58;;;0.73;;
17382;SDS011;8809;51.892;8.384;2023-12-29T11:46:35;1.75;;;0.80;;
17382;SDS011;8809;51.892;8.384;2023-12-29T11:49:02;0.82;;;0.82;;
17382;SDS011;8809;51.892;8.384;2023-12-29T11:51:30;1.35;;;0.70;;
17382;SDS011;8809;51.892;8.384;2023-12-29T11:53:59;1.95;;;0.80;;
17382;SDS011;8809;51.892;8.384;2023-12-29T11:56:37;1.73;;;0.70;;
17382;SDS011;8809;51.892;8.384;2023-12-29T11:59:12;1.23;;;0.70;;
17382;SDS011;8809;51.892;8.384;2023-12-29T12:01:39;0.85;;;0.70;;
17382;SDS011;8809;51.892;8.384;2023-12-29T12:07:02;1.10;;;0.70;;
17382;SDS011;8809;51.892;8.384;2023-12-29T12:09:30;0.95;;;0.60;;
17382;SDS011;8809;51.892;8.384;2023-12-29T12:12:01;1.60;;;0.90;;
17382;SDS011;8809;51.892;8.384;2023-12-29T12:14:45;1.27;;;0.82;;
17382;SDS011;8809;51.892;8.384;2023-12-29T12:17:29;1.08;;;0.80;;
17382;SDS011;8809;51.892;8.384;2023-12-29T12:19:57;1.63;;;0.90;;
17382;SDS011;8809;51.892;8.384;2023-12-29T12:22:25;1.33;;;0.80;;
17382;SDS011;8809;51.892;8.384;2023-12-29T12:24:56;1.20;;;1.00;;
17382;SDS011;8809;51.892;8.384;2023-12-29T12:27:26;1.48;;;1.10;;
17382;SDS011;8809;51.892;8.384;2023-12-29T12:29:55;1.70;;;1.10;;
17382;SDS011;8809;51.892;8.384;2023-12-29T12:32:24;1.13;;;0.80;;
17382;SDS011;8809;51.892;8.384;2023-12-29T12:34:52;1.83;;;0.90;;
17382;SDS011;8809;51.892;8.384;2023-12-29T12:37:20;3.05;;;1.00;;
17382;SDS011;8809;51.892;8.384;2023-12-29T12:39:47;2.28;;;1.13;;
17382;SDS011;8809;51.892;8.384;2023-12-29T12:42:15;1.38;;;0.80;;
17382;SDS011;8809;51.892;8.384;2023-12-29T12:44:47;2.80;;;1.83;;
17382;SDS011;8809;51.892;8.384;2023-12-29T12:47:23;1.42;;;0.80;;
17382;SDS011;8809;51.892;8.384;2023-12-29T12:49:54;1.88;;;1.02;;
17382;SDS011;8809;51.892;8.384;2023-12-29T12:52:21;2.53;;;1.42;;
17382;SDS011;8809;51.892;8.384;2023-12-29T12:54:48;3.42;;;1.35;;
17382;SDS011;8809;51.892;8.384;2023-12-29T12:57:19;1.48;;;1.00;;
17382;SDS011;8809;51.892;8.384;2023-12-29T12:59:48;1.95;;;1.38;;
17382;SDS011;8809;51.892;8.384;2023-12-29T13:02:16;2.53;;;1.60;;
17382;SDS011;8809;51.892;8.384;2023-12-29T13:04:45;1.15;;;1.05;;
17382;SDS011;8809;51.892;8.384;2023-12-29T13:07:17;3.47;;;1.10;;
17382;SDS011;8809;51.892;8.384;2023-12-29T13:09:47;2.90;;;1.30;;
17382;SDS011;8809;51.892;8.384;2023-12-29T13:12:15;3.35;;;1.50;;
17382;SDS011;8809;51.892;8.384;2023-12-29T13:14:43;4.03;;;1.55;;
17382;SDS011;8809;51.892;8.384;2023-12-29T13:17:13;1.95;;;1.30;;
17382;SDS011;8809;51.892;8.384;2023-12-29T13:19:41;2.17;;;1.23;;
17382;SDS011;8809;51.892;8.384;2023-12-29T13:22:10;2.35;;;1.30;;
17382;SDS011;8809;51.892;8.384;2023-12-29T13:24:43;2.40;;;1.35;;
17382;SDS011;8809;51.892;8.384;2023-12-29T13:27:11;4.30;;;1.70;;
17382;SDS011;8809;51.892;8.384;2023-12-29T13:29:38;4.20;;;1.63;;
17382;SDS011;8809;51.892;8.384;2023-12-29T13:32:09;2.83;;;1.50;;
17382;SDS011;8809;51.892;8.384;2023-12-29T13:34:42;3.63;;;1.60;;
17382;SDS011;8809;51.892;8.384;2023-12-29T13:37:18;5.22;;;1.55;;
17382;SDS011;8809;51.892;8.384;2023-12-29T13:39:52;3.00;;;1.60;;
17382;SDS011;8809;51.892;8.384;2023-12-29T13:42:23;3.50;;;1.45;;
17382;SDS011;8809;51.892;8.384;2023-12-29T13:44:53;2.10;;;1.30;;
17382;SDS011;8809;51.892;8.384;2023-12-29T13:47:21;4.30;;;1.85;;
17382;SDS011;8809;51.892;8.384;2023-12-29T13:49:50;3.95;;;1.95;;
17382;SDS011;8809;51.892;8.384;2023-12-29T13:52:18;3.38;;;1.50;;
17382;SDS011;8809;51.892;8.384;2023-12-29T13:54:46;3.13;;;1.50;;
17382;SDS011;8809;51.892;8.384;2023-12-29T13:57:13;3.67;;;1.48;;
17382;SDS011;8809;51.892;8.384;2023-12-29T13:59:40;2.13;;;1.55;;
17382;SDS011;8809;51.892;8.384;2023-12-29T14:02:20;3.45;;;1.40;;
17382;SDS011;8809;51.892;8.384;2023-12-29T14:07:46;4.72;;;1.75;;
17382;SDS011;8809;51.892;8.384;2023-12-29T14:10:19;2.05;;;1.75;;
17382;SDS011;8809;51.892;8.384;2023-12-29T14:12:46;3.83;;;1.80;;
17382;SDS011;8809;51.892;8.384;2023-12-29T14:15:13;2.28;;;1.70;;
17382;SDS011;8809;51.892;8.384;2023-12-29T14:17:40;3.00;;;1.20;;
17382;SDS011;8809;51.892;8.384;2023-12-29T14:20:08;3.17;;;1.50;;
17382;SDS011;8809;51.892;8.384;2023-12-29T14:22:36;3.28;;;1.58;;
17382;SDS011;8809;51.892;8.384;2023-12-29T14:25:05;1.58;;;1.10;;
17382;SDS011;8809;51.892;8.384;2023-12-29T14:27:35;2.63;;;1.10;;
17382;SDS011;8809;51.892;8.384;2023-12-29T14:30:17;1.75;;;0.93;;
17382;SDS011;8809;51.892;8.384;2023-12-29T14:32:44;1.60;;;0.98;;
17382;SDS011;8809;51.892;8.384;2023-12-29T14:35:13;0.98;;;0.75;;
17382;SDS011;8809;51.892;8.384;2023-12-29T14:37:42;4.00;;;1.25;;
17382;SDS011;8809;51.892;8.384;2023-12-29T14:40:12;3.40;;;1.33;;
17382;SDS011;8809;51.892;8.384;2023-12-29T14:42:39;2.05;;;0.90;;
17382;SDS011;8809;51.892;8.384;2023-12-29T14:45:06;3.10;;;1.13;;
17382;SDS011;8809;51.892;8.384;2023-12-29T14:47:35;1.67;;;1.00;;
17382;SDS011;8809;51.892;8.384;2023-12-29T14:50:03;1.75;;;1.00;;
17382;SDS011;8809;51.892;8.384;2023-12-29T14:52:31;2.88;;;1.35;;
17382;SDS011;8809;51.892;8.384;2023-12-29T14:54:58;1.50;;;1.23;;
17382;SDS011;8809;51.892;8.384;2023-12-29T14:57:26;2.90;;;1.55;;
17382;SDS011;8809;51.892;8.384;2023-12-29T14:59:53;3.20;;;1.45;;
17382;SDS011;8809;51.892;8.384;2023-12-29T15:02:20;6.13;;;1.95;;
17382;SDS011;8809;51.892;8.384;2023-12-29T15:04:47;1.35;;;1.20;;
17382;SDS011;8809;51.892;8.384;2023-12-29T15:07:14;3.67;;;1.60;;
17382;SDS011;8809;51.892;8.384;2023-12-29T15:09:42;2.78;;;1.50;;
17382;SDS011;8809;51.892;8.384;2023-12-29T15:12:09;1.63;;;1.15;;
17382;SDS011;8809;51.892;8.384;2023-12-29T15:14:38;2.85;;;2.22;;